Time;durP1;ratioP1;P1;durP2;ratioP2;P2;SDS_P1;SDS_P2;PMS_P1;PMS_P2;Temp;Humidity;BMP_temperature;BMP_pressure;BME280_temperature;BME280_humidity;BME280_pressure;Samples;Min_cycle;Max_cycle;Signal;HPM_P1;HPM_P2
2022/10/31 00:00:53;;;;;;;18.67;10.30;;;;;;;8.98;85.63;96196.42;1706532;83;21614;-61
2022/10/31 00:03:22;;;;;;;18.20;11.27;;;;;;;8.94;85.39;96194.66;1705883;83;21034;-62
2022/10/31 00:05:50;;;;;;;21.00;11.60;;;;;;;8.97;85.55;96194.23;1711820;83;21150;-62
2022/10/31 00:08:17;;;;;;;20.37;11.10;;;;;;;8.99;85.92;96197.71;1714917;83;21037;-62
2022/10/31 00:10:45;;;;;;;21.77;11.83;;;;;;;8.95;85.42;96195.13;1700171;83;21026;-61
2022/10/31 00:13:14;;;;;;;21.50;11.97;;;;;;;8.87;86.14;96195.14;1711626;83;21053;-61
2022/10/31 00:15:41;;;;;;;20.33;11.30;;;;;;;8.92;86.73;96199.95;1717163;83;21081;-61
2022/10/31 00:18:10;;;;;;;18.20;11.33;;;;;;;9.02;86.67;96195.52;1721166;83;21029;-61
2022/10/31 00:20:38;;;;;;;13.32;9.40;;;;;;;9.04;86.38;96190.67;1706116;83;21647;-62
2022/10/31 00:23:06;;;;;;;16.07;9.35;;;;;;;9.12;86.04;96197.23;1711585;83;21129;-61
2022/10/31 00:25:37;;;;;;;15.77;10.33;;;;;;;9.06;85.13;96188.92;1711844;83;21034;-62
2022/10/31 00:28:12;;;;;;;15.77;10.53;;;;;;;8.98;84.91;96189.84;1717878;83;21081;-61
2022/10/31 00:30:39;;;;;;;14.13;10.30;;;;;;;8.92;85.71;96193.78;1716744;83;21299;-61
2022/10/31 00:33:05;;;;;;;13.07;8.77;;;;;;;8.97;85.72;96192.02;1701640;83;21073;-62
2022/10/31 00:35:32;;;;;;;13.80;9.53;;;;;;;8.90;85.18;96192.49;1715660;83;21117;-62
2022/10/31 00:37:59;;;;;;;14.53;9.27;;;;;;;8.81;85.16;96196.45;1707326;83;21034;-62
2022/10/31 00:40:26;;;;;;;12.53;9.03;;;;;;;8.79;85.66;96198.20;1706842;83;21090;-62
2022/10/31 00:42:53;;;;;;;15.57;10.07;;;;;;;8.78;85.24;96203.91;1711555;83;20994;-62
2022/10/31 00:45:20;;;;;;;13.57;9.50;;;;;;;8.78;85.45;96201.28;1714813;83;21560;-61
2022/10/31 00:47:48;;;;;;;13.57;9.57;;;;;;;8.80;85.27;96206.11;1707556;83;21034;-61
2022/10/31 00:50:14;;;;;;;16.47;10.07;;;;;;;8.86;85.81;96201.27;1713997;83;21034;-61
2022/10/31 00:52:41;;;;;;;17.77;11.20;;;;;;;8.87;86.04;96209.61;1706426;83;21057;-62
2022/10/31 00:55:08;;;;;;;17.53;10.63;;;;;;;8.90;86.75;96205.65;1707603;83;21094;-61
2022/10/31 00:57:35;;;;;;;16.93;10.50;;;;;;;8.98;86.44;96206.95;1717981;83;21527;-61
2022/10/31 01:00:04;;;;;;;18.10;11.25;;;;;;;9.00;86.27;96200.80;1700671;83;21057;-62
2022/10/31 01:02:31;;;;;;;14.87;10.17;;;;;;;9.02;86.09;96202.99;1707767;83;21122;-61
2022/10/31 01:04:57;;;;;;;13.53;9.37;;;;;;;8.99;85.87;96209.55;1705710;83;21030;-61
2022/10/31 01:07:24;;;;;;;13.43;8.93;;;;;;;8.96;85.22;96204.30;1712790;83;21022;-61
2022/10/31 01:09:51;;;;;;;15.03;9.77;;;;;;;8.86;84.70;96206.08;1718326;83;21551;-61
2022/10/31 01:12:19;;;;;;;14.23;8.60;;;;;;;8.76;85.26;96200.40;1712005;83;21073;-61
2022/10/31 01:14:47;;;;;;;13.20;9.60;;;;;;;8.70;85.84;96204.81;1718061;83;21762;-61
2022/10/31 01:17:16;;;;;;;12.50;8.83;;;;;;;8.76;86.76;96206.98;1711602;83;21038;-62
2022/10/31 01:19:45;;;;;;;14.57;10.23;;;;;;;8.84;86.72;96209.59;1717264;83;21086;-61
2022/10/31 01:22:12;;;;;;;12.80;8.47;;;;;;;8.91;86.60;96207.84;1712613;83;21562;-62
2022/10/31 01:24:38;;;;;;;12.90;7.57;;;;;;;8.95;86.00;96214.41;1705155;83;21030;-61
2022/10/31 01:27:05;;;;;;;13.23;8.00;;;;;;;8.95;85.88;96208.28;1706577;83;21104;-61
2022/10/31 01:29:34;;;;;;;11.13;8.03;;;;;;;8.93;85.30;96215.30;1716723;82;21058;-61
2022/10/31 01:32:01;;;;;;;12.90;8.28;;;;;;;8.95;85.74;96217.48;1706388;83;21077;-61
2022/10/31 01:34:27;;;;;;;12.10;8.80;;;;;;;8.91;85.08;96217.92;1716254;83;20995;-61
2022/10/31 01:36:54;;;;;;;13.00;8.40;;;;;;;8.88;85.49;96213.98;1707403;83;21580;-61
2022/10/31 01:39:22;;;;;;;10.90;8.20;;;;;;;8.85;85.28;96212.23;1721203;82;20999;-61
2022/10/31 01:41:52;;;;;;;11.43;7.67;;;;;;;8.77;84.79;96221.00;1711043;83;21156;-61
2022/10/31 01:44:24;;;;;;;16.83;8.73;;;;;;;8.65;85.01;96215.34;1717489;83;21077;-62
2022/10/31 01:46:57;;;;;;;15.40;8.33;;;;;;;8.57;85.37;96221.92;1716695;83;21037;-61
2022/10/31 01:49:44;;;;;;;15.07;8.90;;;;;;;8.54;85.51;96212.73;1709905;83;21097;-61
2022/10/31 01:52:31;;;;;;;14.47;7.77;;;;;;;8.57;85.65;96214.03;1709366;83;21030;-61
2022/10/31 01:55:07;;;;;;;13.27;8.20;;;;;;;8.51;85.05;96211.84;1716925;83;21001;-62
2022/10/31 01:57:37;;;;;;;10.43;7.13;;;;;;;8.40;85.44;96211.84;1713844;83;21042;-61
2022/10/31 02:00:09;;;;;;;13.63;8.40;;;;;;;8.36;85.71;96201.72;1713010;83;21572;-62
2022/10/31 02:02:42;;;;;;;13.27;7.77;;;;;;;8.33;85.91;96203.04;1711705;83;21057;-61
2022/10/31 02:05:14;;;;;;;11.47;8.00;;;;;;;8.31;86.04;96201.29;1700198;83;21120;-61
2022/10/31 02:08:01;;;;;;;16.53;8.57;;;;;;;8.19;86.90;96202.19;1717570;83;21038;-61
2022/10/31 02:10:33;;;;;;;12.90;8.57;;;;;;;8.15;88.05;96197.79;1704637;83;21033;-62
2022/10/31 02:13:04;;;;;;;13.03;8.37;;;;;;;8.17;88.07;96201.30;1705777;83;21499;-61
2022/10/31 02:15:33;;;;;;;12.03;6.00;;;;;;;8.19;88.15;96191.67;1700336;83;21212;-61
2022/10/31 02:18:00;;;;;;;11.03;5.67;;;;;;;8.16;87.25;96195.14;1705516;83;21033;-61
2022/10/31 02:20:35;;;;;;;7.37;5.13;;;;;;;8.13;86.81;96197.78;1712184;83;21112;-61
2022/10/31 02:23:35;;;;;;;8.67;5.17;;;;;;;8.06;86.77;96193.83;1712449;83;21117;-62
2022/10/31 02:26:45;;;;;;;7.33;4.03;;;;;;;8.02;86.45;96195.15;1701613;83;21030;-61
2022/10/31 02:29:33;;;;;;;10.27;4.10;;;;;;;7.98;85.98;96191.20;1709952;83;21085;-61
2022/10/31 02:32:24;;;;;;;9.07;4.30;;;;;;;8.01;86.04;96192.50;1708125;83;21034;-61
2022/10/31 02:35:30;;;;;;;5.20;3.70;;;;;;;8.02;85.88;96192.52;1703298;83;21026;-61
2022/10/31 02:38:40;;;;;;;8.50;3.93;;;;;;;8.06;85.77;96189.89;1701716;83;21023;-61
2022/10/31 02:41:42;;;;;;;12.73;4.00;;;;;;;8.09;84.77;96193.41;1716195;83;21049;-62
2022/10/31 02:44:38;;;;;;;8.33;4.13;;;;;;;8.14;84.45;96189.45;1715061;83;21548;-62
2022/10/31 02:47:12;;;;;;;5.90;3.97;;;;;;;8.08;84.01;96185.52;1706857;83;21037;-62
2022/10/31 02:50:11;;;;;;;7.03;3.67;;;;;;;8.09;83.93;96185.53;1707723;83;21855;-62
2022/10/31 02:52:38;;;;;;;8.87;4.03;;;;;;;8.03;83.47;96185.06;1711625;83;21030;-61
2022/10/31 02:55:30;;;;;;;8.07;3.80;;;;;;;8.03;83.75;96187.69;1706715;83;21149;-61
2022/10/31 02:58:10;;;;;;;8.23;3.52;;;;;;;8.06;83.78;96186.81;1723395;83;21073;-61
2022/10/31 03:01:08;;;;;;;6.93;3.90;;;;;;;7.99;83.32;96190.34;1706407;83;21070;-62
2022/10/31 03:04:20;;;;;;;10.53;4.23;;;;;;;7.93;83.38;96183.30;1700834;83;21101;-61
2022/10/31 03:07:13;;;;;;;9.50;4.43;;;;;;;7.85;84.03;96180.23;1711640;83;21054;-61
2022/10/31 03:09:48;;;;;;;9.13;4.50;;;;;;;7.85;84.19;96188.99;1701187;83;21086;-62
2022/10/31 03:12:26;;;;;;;7.83;4.03;;;;;;;7.79;84.19;96185.92;1699132;83;20999;-61
2022/10/31 03:15:16;;;;;;;16.30;4.83;;;;;;;7.76;84.30;96191.59;1717444;83;21507;-61
2022/10/31 03:17:57;;;;;;;9.40;5.03;;;;;;;7.73;84.38;96180.64;1715895;83;21034;-62
2022/10/31 03:20:37;;;;;;;13.77;5.03;;;;;;;7.70;84.44;96191.15;1704742;83;21093;-61
2022/10/31 03:23:09;;;;;;;9.57;4.70;;;;;;;7.65;84.62;96189.39;1711849;83;21046;-61
2022/10/31 03:25:37;;;;;;;7.30;4.17;;;;;;;7.64;84.82;96199.03;1716843;83;21029;-61
2022/10/31 03:28:06;;;;;;;8.40;3.90;;;;;;;7.58;84.93;96194.65;1721937;83;21109;-62
2022/10/31 03:30:37;;;;;;;8.03;4.27;;;;;;;7.48;85.52;96197.22;1716458;83;20995;-61
2022/10/31 03:33:09;;;;;;;10.23;5.10;;;;;;;7.43;85.86;96194.57;1711236;83;21038;-61
2022/10/31 03:35:41;;;;;;;8.88;5.42;;;;;;;7.40;85.68;96204.20;1706068;83;21077;-61
2022/10/31 03:38:09;;;;;;;10.47;6.20;;;;;;;7.41;85.67;96198.06;1721994;83;21116;-61
2022/10/31 03:40:39;;;;;;;11.17;6.03;;;;;;;7.40;86.58;96202.89;1717847;83;21005;-61
2022/10/31 03:43:10;;;;;;;14.50;9.20;;;;;;;7.47;87.00;96204.22;1716640;83;21061;-61
2022/10/31 03:45:42;;;;;;;21.40;12.80;;;;;;;7.51;86.82;96204.69;1703510;83;21034;-61
2022/10/31 03:48:09;;;;;;;27.27;16.10;;;;;;;7.57;87.13;96201.20;1716997;83;21038;-61
2022/10/31 03:50:59;;;;;;;25.30;13.70;;;;;;;7.60;86.96;96199.88;1673074;83;21066;-61
2022/10/31 03:53:35;;;;;;;27.83;13.37;;;;;;;7.64;86.94;96195.09;1722510;83;21185;-61
2022/10/31 03:56:14;;;;;;;9.43;6.27;;;;;;;7.66;86.47;96203.86;1705006;83;21500;-61
2022/10/31 03:59:05;;;;;;;15.20;8.13;;;;;;;7.74;86.33;96204.74;1713209;83;21050;-61
2022/10/31 04:01:35;;;;;;;34.73;17.73;;;;;;;7.72;86.07;96193.80;1705503;83;21496;-62
2022/10/31 04:04:03;;;;;;;41.40;20.60;;;;;;;7.79;87.00;96200.38;1705655;83;21085;-62
2022/10/31 04:06:31;;;;;;;33.93;18.90;;;;;;;7.89;86.71;96203.90;1706880;83;21110;-62
2022/10/31 04:09:04;;;;;;;37.00;20.73;;;;;;;7.91;86.58;96196.00;1704230;83;20998;-61
2022/10/31 04:11:35;;;;;;;32.73;17.73;;;;;;;8.02;87.29;96203.03;1714097;83;21061;-61
2022/10/31 04:14:24;;;;;;;23.50;11.70;;;;;;;8.05;86.96;96206.09;1712213;83;21044;-61
2022/10/31 04:16:52;;;;;;;21.70;11.83;;;;;;;8.05;86.85;96203.92;1712913;83;21182;-62
2022/10/31 04:19:20;;;;;;;20.60;12.00;;;;;;;8.02;86.84;96206.10;1705596;83;21050;-62
2022/10/31 04:21:47;;;;;;;27.87;16.77;;;;;;;8.06;87.02;96206.52;1706883;83;21060;-61
2022/10/31 04:24:14;;;;;;;24.67;13.23;;;;;;;8.08;86.82;96208.72;1705435;83;21087;-61
2022/10/31 04:26:40;;;;;;;38.40;20.77;;;;;;;7.95;86.96;96196.45;1704605;83;21034;-61
2022/10/31 04:29:08;;;;;;;19.53;11.43;;;;;;;7.94;87.42;96206.09;1704292;83;21066;-61
2022/10/31 04:31:34;;;;;;;20.30;13.40;;;;;;;7.90;87.26;96208.27;1711221;83;21046;-61
2022/10/31 04:34:02;;;;;;;11.60;8.33;;;;;;;7.96;87.31;96203.04;1711913;83;21081;-61
2022/10/31 04:36:28;;;;;;;10.07;6.90;;;;;;;8.06;87.56;96209.59;1711157;83;21030;-61
2022/10/31 04:38:55;;;;;;;12.13;8.90;;;;;;;8.07;86.87;96207.43;1716699;83;21042;-61
2022/10/31 04:41:24;;;;;;;11.33;8.03;;;;;;;8.03;87.19;96202.59;1712485;83;21575;-62
2022/10/31 04:43:53;;;;;;;8.70;7.80;;;;;;;8.08;87.20;96207.41;1722045;83;21077;-62
2022/10/31 04:46:19;;;;;;;8.27;7.00;;;;;;;8.09;87.28;96209.19;1716832;83;21030;-62
2022/10/31 04:48:47;;;;;;;12.17;9.20;;;;;;;8.14;87.45;96212.69;1715050;83;21041;-62
2022/10/31 04:51:14;;;;;;;16.03;10.10;;;;;;;8.10;86.90;96209.61;1715432;83;21041;-62
2022/10/31 04:53:41;;;;;;;16.70;8.97;;;;;;;7.95;86.47;96207.84;1719313;83;21026;-61
2022/10/31 04:56:26;;;;;;;21.30;12.60;;;;;;;7.85;86.88;96211.77;1708846;83;21027;-62
2022/10/31 04:58:55;;;;;;;7.70;6.33;;;;;;;7.66;87.05;96213.46;1712954;83;21007;-61
2022/10/31 05:01:22;;;;;;;8.10;6.07;;;;;;;7.64;87.15;96217.41;1705455;83;21164;-62
2022/10/31 05:03:49;;;;;;;5.90;4.87;;;;;;;7.68;87.24;96219.16;1716289;83;21124;-61
2022/10/31 05:06:16;;;;;;;7.23;6.10;;;;;;;7.64;86.18;96224.42;1711452;83;21035;-61
2022/10/31 05:08:43;;;;;;;6.10;5.50;;;;;;;7.58;86.70;96224.84;1704082;83;21046;-61
2022/10/31 05:11:11;;;;;;;6.33;5.37;;;;;;;7.55;86.54;96235.76;1707018;83;21089;-61
2022/10/31 05:13:38;;;;;;;6.00;4.77;;;;;;;7.47;86.35;96235.73;1699968;83;21558;-62
2022/10/31 05:16:13;;;;;;;6.40;5.10;;;;;;;7.36;86.00;96240.95;1712350;83;21038;-61
2022/10/31 05:18:46;;;;;;;9.83;6.75;;;;;;;7.26;86.48;96239.16;1712841;83;21104;-62
2022/10/31 05:21:31;;;;;;;17.87;10.77;;;;;;;7.18;86.86;96246.53;1710800;83;21218;-61
2022/10/31 05:24:00;;;;;;;23.83;13.50;;;;;;;7.10;86.64;96253.92;1712006;83;21038;-64
2022/10/31 05:26:28;;;;;;;9.33;6.93;;;;;;;7.05;87.08;96254.78;1706983;83;21524;-62
2022/10/31 05:28:55;;;;;;;8.80;5.70;;;;;;;7.00;87.40;96261.74;1711580;83;21036;-61
2022/10/31 05:31:21;;;;;;;7.07;5.70;;;;;;;6.92;87.40;96252.08;1705253;83;21049;-61
2022/10/31 05:33:49;;;;;;;11.77;7.27;;;;;;;6.89;87.65;96262.56;1716256;83;21022;-61
2022/10/31 05:36:34;;;;;;;14.83;9.37;;;;;;;6.88;87.71;96260.81;1721292;83;21106;-61
2022/10/31 05:39:02;;;;;;;18.70;12.63;;;;;;;6.81;87.62;96261.64;1708276;83;21018;-61
2022/10/31 05:41:33;;;;;;;28.23;17.83;;;;;;;6.74;87.90;96266.39;1706530;83;21030;-61
2022/10/31 05:44:02;;;;;;;40.27;21.47;;;;;;;6.74;88.29;96263.77;1706157;83;21049;-61
2022/10/31 05:46:29;;;;;;;64.83;31.33;;;;;;;6.76;88.55;96262.05;1706427;83;21066;-61
2022/10/31 05:49:14;;;;;;;34.47;20.30;;;;;;;6.82;88.52;96265.13;1708170;83;21473;-61
2022/10/31 05:51:59;;;;;;;31.90;19.80;;;;;;;6.80;88.17;96269.48;1702622;83;21528;-60
2022/10/31 05:54:28;;;;;;;50.60;29.97;;;;;;;6.81;88.02;96272.57;1716232;83;21038;-62
2022/10/31 05:56:54;;;;;;;106.87;67.80;;;;;;;6.86;88.36;96269.55;1710692;83;20998;-62
2022/10/31 05:59:21;;;;;;;37.07;29.50;;;;;;;6.86;88.04;96265.61;1710518;82;21130;-62
2022/10/31 06:01:48;;;;;;;13.43;9.13;;;;;;;6.91;88.09;96271.77;1693012;82;21076;-62
2022/10/31 06:04:29;;;;;;;7.50;5.97;;;;;;;6.88;88.55;96279.62;1681899;85;21016;-61
2022/10/31 06:06:57;;;;;;;8.63;7.47;;;;;;;6.91;88.41;96285.75;1687372;85;21044;-62
2022/10/31 06:09:24;;;;;;;11.37;8.90;;;;;;;6.94;88.12;96287.08;1686674;85;21581;-61
2022/10/31 06:11:51;;;;;;;12.13;10.73;;;;;;;6.88;88.18;96290.98;1684255;85;21214;-61
2022/10/31 06:14:26;;;;;;;18.87;13.83;;;;;;;6.87;88.65;96283.09;1685789;85;21100;-62
2022/10/31 06:16:55;;;;;;;15.63;11.00;;;;;;;6.88;88.91;96280.48;1686600;85;21060;-61
2022/10/31 06:19:33;;;;;;;9.93;7.50;;;;;;;6.86;88.91;96280.03;1678568;85;21047;-64
2022/10/31 06:22:00;;;;;;;16.43;12.80;;;;;;;6.90;88.71;96288.35;1685807;85;21510;-63
2022/10/31 06:24:28;;;;;;;20.43;15.43;;;;;;;6.98;88.57;96296.27;1685802;85;21056;-64
2022/10/31 06:26:56;;;;;;;18.93;13.27;;;;;;;7.05;89.04;96289.76;1687181;84;21080;-62
2022/10/31 06:29:23;;;;;;;14.77;11.60;;;;;;;7.15;89.10;96298.13;1686179;85;21052;-62
2022/10/31 06:31:57;;;;;;;12.07;10.20;;;;;;;7.29;89.14;96296.04;1687423;85;22589;-62
2022/10/31 06:34:24;;;;;;;21.57;19.33;;;;;;;7.50;89.32;96292.63;1683341;85;21084;-62
2022/10/31 06:36:51;;;;;;;18.20;16.40;;;;;;;7.55;88.21;96286.52;1684606;85;21052;-62
2022/10/31 06:39:19;;;;;;;11.90;10.70;;;;;;;7.68;88.32;96286.58;1689519;85;21060;-62
2022/10/31 06:41:49;;;;;;;7.67;6.40;;;;;;;7.70;87.71;96287.47;1686673;85;21068;-63
2022/10/31 06:44:18;;;;;;;62.47;55.70;;;;;;;7.75;87.53;96285.29;1685979;85;21113;-64
2022/10/31 06:46:54;;;;;;;11.20;10.13;;;;;;;7.85;87.30;96291.45;1687355;85;21063;-61
2022/10/31 06:49:36;;;;;;;6.93;6.33;;;;;;;7.78;86.65;96286.61;1689046;85;21040;-61
2022/10/31 06:52:05;;;;;;;6.20;5.30;;;;;;;7.94;87.43;96276.17;1683140;85;21044;-64
2022/10/31 06:54:32;;;;;;;6.03;5.07;;;;;;;8.00;86.92;96276.17;1684666;85;21052;-61
2022/10/31 06:57:00;;;;;;;6.70;6.10;;;;;;;8.13;87.27;96274.45;1685103;84;21060;-64
2022/10/31 06:59:26;;;;;;;6.43;5.80;;;;;;;8.32;87.51;96270.98;1686742;85;21035;-62
2022/10/31 07:02:02;;;;;;;9.63;6.13;;;;;;;8.40;86.42;96266.63;1687473;85;21087;-63
2022/10/31 07:04:29;;;;;;;7.37;5.23;;;;;;;8.62;86.85;96268.83;1685386;84;21518;-62
2022/10/31 07:06:56;;;;;;;7.00;6.00;;;;;;;8.69;85.43;96267.05;1688654;84;21005;-65
2022/10/31 07:09:23;;;;;;;6.93;5.90;;;;;;;8.68;84.43;96271.02;1685608;85;21127;-62
2022/10/31 07:11:53;;;;;;;5.70;5.10;;;;;;;8.62;83.56;96272.78;1685663;85;21068;-64
2022/10/31 07:14:20;;;;;;;6.10;5.15;;;;;;;8.65;84.13;96273.22;1685434;85;21009;-62
2022/10/31 07:16:50;;;;;;;6.13;4.93;;;;;;;8.68;84.40;96272.34;1704231;82;21094;-66
2022/10/31 07:19:18;;;;;;;5.77;4.63;;;;;;;8.80;84.50;96271.89;1702397;82;21025;-63
2022/10/31 07:21:45;;;;;;;8.17;5.90;;;;;;;8.81;83.78;96268.37;1737352;82;21043;-65
2022/10/31 07:24:15;;;;;;;8.20;6.42;;;;;;;8.86;84.18;96269.68;1729172;81;21264;-66
2022/10/31 07:26:42;;;;;;;6.28;5.03;;;;;;;9.01;84.70;96263.08;1721240;82;21142;-64
2022/10/31 07:29:09;;;;;;;5.30;4.80;;;;;;;9.02;83.43;96263.95;1715709;81;21042;-64
2022/10/31 07:31:36;;;;;;;7.12;6.42;;;;;;;9.01;83.03;96261.77;1718326;81;21121;-62
2022/10/31 07:34:05;;;;;;;10.45;5.58;;;;;;;9.09;83.77;96252.08;1733851;82;21132;-63
2022/10/31 07:36:33;;;;;;;6.75;5.90;;;;;;;9.23;83.75;96253.83;1736338;82;21085;-64
2022/10/31 07:39:02;;;;;;;6.78;6.08;;;;;;;9.23;83.28;96250.75;1709028;82;21061;-62
2022/10/31 07:41:31;;;;;;;7.05;5.65;;;;;;;9.30;83.35;96252.94;1743068;82;21070;-63
2022/10/31 07:43:57;;;;;;;7.70;5.10;;;;;;;9.41;83.63;96248.94;1734242;81;21587;-62
2022/10/31 07:46:26;;;;;;;7.15;5.42;;;;;;;9.49;82.96;96253.28;1704878;81;21535;-61
2022/10/31 07:49:11;;;;;;;7.55;5.62;;;;;;;9.54;82.92;96259.86;1752825;81;21871;-65
2022/10/31 07:51:57;;;;;;;6.40;5.45;;;;;;;9.70;83.05;96255.39;1748613;81;21022;-61
2022/10/31 07:54:42;;;;;;;6.25;5.55;;;;;;;9.84;82.78;96257.98;1746820;81;21114;-63
2022/10/31 07:57:09;;;;;;;7.28;5.62;;;;;;;9.81;82.03;96252.28;1729364;82;21497;-63
2022/10/31 07:59:37;;;;;;;7.17;5.62;;;;;;;9.82;82.50;96257.10;1730726;81;21030;-63
2022/10/31 08:02:05;;;;;;;6.78;6.05;;;;;;;9.87;82.95;96260.14;1752364;81;21020;-62
2022/10/31 08:04:32;;;;;;;6.92;5.30;;;;;;;10.08;83.16;96259.58;1711320;82;21045;-61
2022/10/31 08:07:18;;;;;;;7.50;6.72;;;;;;;10.21;82.35;96245.45;1705108;82;21026;-63
2022/10/31 08:09:47;;;;;;;8.80;7.35;;;;;;;10.32;81.99;96246.28;1738092;81;21512;-64
2022/10/31 08:12:19;;;;;;;11.80;8.20;;;;;;;10.47;81.42;96243.11;1739631;82;21130;-63
2022/10/31 08:14:46;;;;;;;9.30;7.05;;;;;;;10.52;81.47;96243.94;1722613;82;21024;-63
2022/10/31 08:17:13;;;;;;;10.55;6.80;;;;;;;10.55;81.34;96239.95;1729579;82;21100;-61
2022/10/31 08:19:42;;;;;;;10.80;7.12;;;;;;;10.57;81.10;96245.65;1729372;81;21085;-66
2022/10/31 08:22:10;;;;;;;7.03;5.83;;;;;;;10.63;81.35;96246.48;1710582;81;21638;-63
2022/10/31 08:24:37;;;;;;;7.50;4.92;;;;;;;10.76;81.70;96242.42;1742567;81;21128;-63
2022/10/31 08:27:04;;;;;;;7.75;5.55;;;;;;;11.04;82.37;96245.67;1727579;81;21094;-64
2022/10/31 08:29:32;;;;;;;6.90;6.15;;;;;;;11.34;81.92;96252.85;1730590;81;21710;-62
2022/10/31 08:31:59;;;;;;;6.05;5.45;;;;;;;11.63;81.63;96263.07;1748207;81;21074;-62
2022/10/31 08:34:44;;;;;;;6.08;5.30;;;;;;;11.86;79.78;96272.48;1741034;81;21034;-63
2022/10/31 08:37:19;;;;;;;7.25;6.55;;;;;;;12.09;79.58;96265.59;1734604;81;21011;-66
2022/10/31 08:39:48;;;;;;;6.22;5.62;;;;;;;12.14;78.09;96255.83;1700306;81;21132;-63
2022/10/31 08:42:15;;;;;;;6.83;6.22;;;;;;;12.10;77.26;96256.79;1683955;85;22320;-63
2022/10/31 08:44:42;;;;;;;6.17;5.50;;;;;;;12.06;78.07;96259.03;1687451;85;21367;-64
2022/10/31 08:47:09;;;;;;;7.97;7.20;;;;;;;11.98;77.79;96258.27;1687695;85;21525;-63
2022/10/31 08:49:36;;;;;;;6.25;5.50;;;;;;;11.85;77.89;96250.92;1686722;85;21032;-64
2022/10/31 08:52:03;;;;;;;6.28;5.28;;;;;;;11.77;78.15;96256.30;1683199;85;21080;-63
2022/10/31 08:54:32;;;;;;;4.80;4.28;;;;;;;11.90;78.84;96249.98;1687281;85;21088;-62
2022/10/31 08:57:17;;;;;;;6.37;5.03;;;;;;;11.93;77.78;96255.69;1688253;85;21526;-61
2022/10/31 08:59:45;;;;;;;10.58;5.60;;;;;;;12.04;78.56;96258.17;1687106;85;21040;-63
2022/10/31 09:02:20;;;;;;;8.95;5.45;;;;;;;12.18;78.32;96259.33;1686832;85;21052;-64
2022/10/31 09:04:48;;;;;;;5.97;5.28;;;;;;;12.18;77.42;96258.87;1659461;85;21035;-62
2022/10/31 09:07:15;;;;;;;7.20;5.87;;;;;;;12.02;77.04;96267.89;1689619;85;21080;-62
2022/10/31 09:09:42;;;;;;;7.80;5.55;;;;;;;11.85;77.39;96278.69;1662374;85;21051;-64
2022/10/31 09:12:09;;;;;;;5.47;4.95;;;;;;;11.79;78.21;96286.67;1688197;84;21064;-62
2022/10/31 09:14:55;;;;;;;8.03;6.22;;;;;;;11.93;78.57;96275.52;1688856;85;21005;-64
2022/10/31 09:17:29;;;;;;;5.97;5.42;;;;;;;11.84;78.31;96281.78;1683696;85;21061;-62
2022/10/31 09:19:58;;;;;;;5.65;4.58;;;;;;;11.82;78.50;96293.27;1671094;85;21052;-62
2022/10/31 09:22:26;;;;;;;6.53;5.03;;;;;;;11.80;78.89;96287.12;1685316;85;21165;-62
2022/10/31 09:24:53;;;;;;;7.55;5.55;;;;;;;11.80;78.72;96285.34;1689104;85;21080;-62
2022/10/31 09:27:19;;;;;;;6.80;5.47;;;;;;;11.76;78.72;96293.33;1687190;85;21087;-63
2022/10/31 09:29:47;;;;;;;5.58;4.97;;;;;;;11.70;78.76;96292.50;1685357;85;21117;-63
2022/10/31 09:32:14;;;;;;;5.50;4.90;;;;;;;11.73;78.94;96298.20;1687603;85;21035;-62
2022/10/31 09:34:43;;;;;;;5.62;4.95;;;;;;;11.65;78.85;96295.65;1684676;85;21072;-62
2022/10/31 09:37:13;;;;;;;6.45;4.85;;;;;;;11.62;79.08;96290.41;1689531;85;21079;-61
2022/10/31 09:39:39;;;;;;;7.40;5.47;;;;;;;11.60;78.90;96295.28;1687509;85;21083;-64
2022/10/31 09:42:49;;;;;;;7.45;5.87;;;;;;;11.54;78.81;96286.08;1711461;82;21071;-61
2022/10/31 09:45:34;;;;;;;7.62;6.15;;;;;;;11.51;79.02;96296.70;1732462;81;21586;-64
2022/10/31 09:48:26;;;;;;;10.13;8.73;;;;;;;11.43;79.46;96304.25;1704054;82;21006;-62
2022/10/31 09:51:16;;;;;;;18.82;10.98;;;;;;;11.35;79.81;96301.28;1729037;81;21132;-63
2022/10/31 09:53:56;;;;;;;7.92;7.10;;;;;;;11.29;80.01;96306.60;1683862;84;21030;-64
2022/10/31 09:56:26;;;;;;;8.45;7.50;;;;;;;11.20;80.55;96303.63;1688135;84;21500;-64
2022/10/31 09:59:00;;;;;;;7.90;6.83;;;;;;;11.16;80.67;96307.17;1674327;85;21168;-62
2022/10/31 10:01:54;;;;;;;11.78;7.28;;;;;;;11.17;80.97;96300.56;1672350;84;21042;-63
2022/10/31 10:04:53;;;;;;;91.10;38.28;;;;;;;11.26;80.97;96302.23;1705590;82;21014;-63
2022/10/31 10:07:46;;;;;;;43.02;20.25;;;;;;;11.32;81.08;96304.83;1676029;85;21037;-61
2022/10/31 10:10:59;;;;;;;19.77;9.63;;;;;;;11.32;81.09;96296.03;1697063;82;21105;-61
2022/10/31 10:14:07;;;;;;;8.20;6.55;;;;;;;11.40;80.98;96306.94;1748548;82;21083;-62
2022/10/31 10:16:42;;;;;;;11.70;9.35;;;;;;;11.47;80.66;96305.12;1681951;84;21078;-62
2022/10/31 10:19:29;;;;;;;10.35;7.10;;;;;;;11.55;80.75;96306.35;1729305;82;21608;-63
2022/10/31 10:22:32;;;;;;;16.82;9.63;;;;;;;11.58;80.58;96297.93;1724745;82;21041;-62
2022/10/31 10:25:21;;;;;;;23.70;18.35;;;;;;;11.63;80.12;96297.43;1711348;82;21053;-61
2022/10/31 10:27:59;;;;;;;11.97;7.00;;;;;;;11.63;79.84;96296.56;1712244;82;21024;-61
2022/10/31 10:30:37;;;;;;;9.33;6.80;;;;;;;11.74;80.48;96295.11;1716530;81;21044;-62
2022/10/31 10:33:09;;;;;;;7.85;6.95;;;;;;;11.80;80.18;96291.95;1752258;82;21489;-62
2022/10/31 10:35:56;;;;;;;6.70;6.00;;;;;;;11.85;80.01;96290.13;1748591;81;21071;-62
2022/10/31 10:38:52;;;;;;;6.97;5.92;;;;;;;11.90;79.63;96293.62;1684280;82;21609;-62
2022/10/31 10:41:22;;;;;;;6.37;5.40;;;;;;;12.01;79.81;96284.22;1724772;81;21094;-62
2022/10/31 10:43:51;;;;;;;7.60;5.83;;;;;;;12.04;79.55;96285.49;1748896;81;21636;-62
2022/10/31 10:49:52;;;;;;;13.53;12.07;;;;;;;12.10;79.36;96285.43;1710561;82;21642;-62
2022/10/31 10:52:44;;;;;;;13.60;7.65;;;;;;;12.00;79.03;96286.91;1723470;82;21534;-61
2022/10/31 10:55:37;;;;;;;9.93;7.03;;;;;;;11.98;79.09;96290.01;1719742;81;21026;-62
2022/10/31 10:58:09;;;;;;;15.00;10.18;;;;;;;11.97;79.56;96293.53;1706733;82;21003;-61
2022/10/31 11:00:43;;;;;;;10.05;8.13;;;;;;;11.91;79.53;96291.84;1744188;82;21020;-61
2022/10/31 11:03:10;;;;;;;9.35;7.53;;;;;;;11.85;79.49;96291.91;1703121;82;21496;-62
2022/10/31 11:05:50;;;;;;;9.40;7.87;;;;;;;11.80;79.99;96300.34;1751382;81;21044;-62
2022/10/31 11:08:35;;;;;;;9.88;8.03;;;;;;;11.75;79.85;96301.70;1722433;81;21587;-62
2022/10/31 11:11:29;;;;;;;14.23;8.43;;;;;;;11.61;80.12;96295.25;1715308;82;21532;-63
2022/10/31 11:14:00;;;;;;;11.83;7.75;;;;;;;11.62;80.42;96297.47;1709221;82;21075;-61
2022/10/31 11:16:35;;;;;;;8.73;7.00;;;;;;;11.60;80.69;96298.80;1738523;82;21102;-62
2022/10/31 11:19:10;;;;;;;13.00;8.88;;;;;;;11.51;80.18;96293.60;1699133;82;21037;-61
2022/10/31 11:21:37;;;;;;;10.28;8.70;;;;;;;11.50;80.42;96293.64;1698621;82;21050;-62
2022/10/31 11:24:17;;;;;;;14.18;11.50;;;;;;;11.55;80.57;96291.81;1719651;82;21000;-62
2022/10/31 11:26:47;;;;;;;9.85;8.40;;;;;;;11.55;80.48;96294.01;1741744;82;21099;-62
2022/10/31 11:29:27;;;;;;;9.25;7.35;;;;;;;11.63;80.60;96290.83;1728406;82;21058;-61
2022/10/31 11:31:56;;;;;;;9.28;7.25;;;;;;;11.64;80.44;96285.98;1740206;82;21051;-62
2022/10/31 11:34:31;;;;;;;8.90;7.70;;;;;;;11.71;80.36;96286.77;1753835;81;21542;-62
2022/10/31 11:37:17;;;;;;;8.00;6.35;;;;;;;11.64;79.91;96280.70;1752613;82;21096;-61
2022/10/31 11:39:53;;;;;;;9.95;7.10;;;;;;;11.63;79.94;96280.25;1740874;82;20996;-62
2022/10/31 11:42:17;;;;;;;10.55;7.58;;;;;;;11.68;80.56;96276.23;1727951;82;21584;-61
2022/10/31 11:44:45;;;;;;;11.05;7.35;;;;;;;11.81;80.94;96274.31;1722563;82;21048;-61
2022/10/31 11:47:18;;;;;;;9.13;7.35;;;;;;;11.82;80.57;96276.95;1699395;82;21026;-61
2022/10/31 11:49:49;;;;;;;9.10;6.53;;;;;;;11.93;80.73;96272.88;1737511;82;21530;-62
2022/10/31 11:52:23;;;;;;;13.20;7.15;;;;;;;11.98;80.17;96272.36;1754683;82;21055;-62
2022/10/31 11:54:54;;;;;;;10.93;7.37;;;;;;;12.07;80.16;96270.93;1736076;81;21035;-62
2022/10/31 11:57:27;;;;;;;11.12;8.05;;;;;;;12.08;79.54;96271.80;1742745;82;21066;-62
2022/10/31 11:59:59;;;;;;;;;;;;;;;12.11;79.53;96269.97;1734222;82;21014;-62
2022/10/31 12:02:27;;;;;;;10.63;6.37;;;;;;;12.13;80.09;96274.80;1753218;82;20086;-61
2022/10/31 12:05:08;;;;;;;10.98;7.72;;;;;;;12.21;79.60;96274.69;1753618;81;21047;-62